createdAt,value
2023-01-04T00:00:57.416Z,0.00
2023-01-04T00:01:57.373Z,0.00
2023-01-04T00:02:57.390Z,0.00
2023-01-04T00:03:57.397Z,0.00
2023-01-04T00:04:57.517Z,0.00
2023-01-04T00:05:57.242Z,0.00
2023-01-04T00:06:57.250Z,0.00
2023-01-04T00:07:57.241Z,0.00
2023-01-04T00:08:57.229Z,0.00
2023-01-04T00:09:57.189Z,0.00
2023-01-04T00:10:57.207Z,0.00
2023-01-04T00:11:57.199Z,0.00
2023-01-04T00:12:57.204Z,0.00
2023-01-04T00:13:57.206Z,0.00
2023-01-04T00:14:57.141Z,0.00
2023-01-04T00:15:59.100Z,0.00
2023-01-04T00:16:58.142Z,0.00
2023-01-04T00:17:57.127Z,0.00
2023-01-04T00:18:57.120Z,0.00
2023-01-04T00:19:57.111Z,0.00
2023-01-04T00:20:57.077Z,0.00
2023-01-04T00:21:57.095Z,0.00
2023-01-04T00:22:57.051Z,0.00
2023-01-04T00:23:57.060Z,0.00
2023-01-04T00:24:57.052Z,0.00
2023-01-04T00:25:57.045Z,0.00
2023-01-04T00:26:57.025Z,0.00
2023-01-04T00:27:57.008Z,0.00
2023-01-04T00:28:57.002Z,0.00
2023-01-04T00:29:56.993Z,0.00
2023-01-04T00:30:57.073Z,0.00
2023-01-04T00:31:57.007Z,0.00
2023-01-04T00:32:56.960Z,0.00
2023-01-04T00:33:56.962Z,0.00
2023-01-04T00:34:56.921Z,0.00
2023-01-04T00:35:56.921Z,0.00
2023-01-04T00:36:56.921Z,0.00
2023-01-04T00:37:57.105Z,0.00
2023-01-04T00:38:56.892Z,0.00
2023-01-04T00:39:56.882Z,0.00
2023-01-04T00:40:56.858Z,0.00
2023-01-04T00:41:59.301Z,0.00
2023-01-04T00:42:56.848Z,0.00
2023-01-04T00:43:56.841Z,0.00
2023-01-04T00:44:56.817Z,0.00
2023-01-04T00:45:56.861Z,0.00
2023-01-04T00:46:56.810Z,0.00
2023-01-04T00:47:56.795Z,0.00
2023-01-04T00:49:00.413Z,0.00
2023-01-04T00:49:56.763Z,0.00
2023-01-04T00:50:56.757Z,0.00
2023-01-04T00:51:56.761Z,0.00
2023-01-04T00:52:56.738Z,0.00
2023-01-04T00:53:56.724Z,0.00
2023-01-04T00:54:56.703Z,0.00
2023-01-04T00:55:56.721Z,0.00
2023-01-04T00:56:56.685Z,0.00
2023-01-04T00:57:56.688Z,0.00
2023-01-04T00:58:56.663Z,0.00
2023-01-04T00:59:56.654Z,0.00
2023-01-04T01:00:56.652Z,0.00
2023-01-04T01:01:56.795Z,0.00
2023-01-04T01:02:56.855Z,0.00
2023-01-04T01:03:56.728Z,0.00
2023-01-04T01:04:56.592Z,0.00
2023-01-04T01:05:56.590Z,0.00
2023-01-04T01:06:56.598Z,0.00
2023-01-04T01:07:56.568Z,0.00
2023-01-04T01:08:56.544Z,0.00
2023-01-04T01:09:56.563Z,0.00
2023-01-04T01:10:56.538Z,0.00
2023-01-04T01:11:56.528Z,0.00
2023-01-04T01:12:56.505Z,0.00
2023-01-04T01:13:57.124Z,0.00
2023-01-04T01:15:00.456Z,0.00
2023-01-04T01:15:56.543Z,0.00
2023-01-04T01:16:58.419Z,0.00
2023-01-04T01:17:56.483Z,0.00
2023-01-04T01:18:56.442Z,0.00
2023-01-04T01:19:56.438Z,0.00
2023-01-04T01:20:56.423Z,0.00
2023-01-04T01:21:56.403Z,0.00
2023-01-04T01:22:56.392Z,0.00
2023-01-04T01:23:56.407Z,0.00
2023-01-04T01:24:56.365Z,0.00
2023-01-04T01:25:56.361Z,0.00
2023-01-04T01:26:56.357Z,0.00
2023-01-04T01:27:56.346Z,0.00
2023-01-04T01:28:56.346Z,0.00
2023-01-04T01:29:56.345Z,0.00
2023-01-04T01:30:56.420Z,0.00
2023-01-04T01:31:56.549Z,0.00
2023-01-04T01:32:56.412Z,0.00
2023-01-04T01:33:56.420Z,0.00
2023-01-04T01:34:56.468Z,0.00
2023-01-04T01:35:56.489Z,0.00
2023-01-04T01:36:56.261Z,0.00
2023-01-04T01:37:56.334Z,0.00
2023-01-04T01:38:56.230Z,0.00
2023-01-04T01:39:56.254Z,0.00
2023-01-04T01:40:56.195Z,0.00
2023-01-04T01:41:56.192Z,0.00
2023-01-04T01:42:56.183Z,0.00
2023-01-04T01:43:56.198Z,0.00
2023-01-04T01:44:56.146Z,0.00
2023-01-04T01:45:56.191Z,0.00
2023-01-04T01:46:56.159Z,0.00
2023-01-04T01:47:56.120Z,0.00
2023-01-04T01:48:56.096Z,0.00
2023-01-04T01:49:56.127Z,0.00
2023-01-04T01:50:56.096Z,0.00
2023-01-04T01:51:56.092Z,0.00
2023-01-04T01:52:56.068Z,0.00
2023-01-04T01:53:56.377Z,0.00
2023-01-04T01:54:56.044Z,0.00
2023-01-04T01:55:56.060Z,0.00
2023-01-04T01:56:56.014Z,0.00
2023-01-04T01:57:56.018Z,0.00
2023-01-04T01:58:55.996Z,0.00
2023-01-04T01:59:55.988Z,0.00
2023-01-04T02:00:55.960Z,0.00
2023-01-04T02:01:56.097Z,0.00
2023-01-04T02:02:56.233Z,0.00
2023-01-04T02:03:56.044Z,0.00
2023-01-04T02:04:55.924Z,0.00
2023-01-04T02:05:55.919Z,0.00
2023-01-04T02:06:55.909Z,0.00
2023-01-04T02:07:55.906Z,0.00
2023-01-04T02:08:55.897Z,0.00
2023-01-04T02:09:55.897Z,0.00
2023-01-04T02:10:55.857Z,0.00
2023-01-04T02:11:55.859Z,0.00
2023-01-04T02:12:55.826Z,0.00
2023-01-04T02:13:55.900Z,0.00
2023-01-04T02:14:55.835Z,0.00
2023-01-04T02:15:55.834Z,0.00
2023-01-04T02:16:55.787Z,0.00
2023-01-04T02:17:55.788Z,0.00
2023-01-04T02:18:55.786Z,0.00
2023-01-04T02:19:55.784Z,0.00
2023-01-04T02:20:55.772Z,0.00
2023-01-04T02:21:55.893Z,0.00
2023-01-04T02:22:55.793Z,0.00
2023-01-04T02:23:55.797Z,0.00
2023-01-04T02:24:55.839Z,0.00
2023-01-04T02:25:55.765Z,0.00
2023-01-04T02:26:55.825Z,0.00
2023-01-04T02:27:55.837Z,0.00
2023-01-04T02:28:55.845Z,0.00
2023-01-04T02:29:55.829Z,0.00
2023-01-04T02:30:55.797Z,0.00
2023-01-04T02:31:55.822Z,0.00
2023-01-04T02:32:55.712Z,0.00
2023-01-04T02:33:56.145Z,0.00
2023-01-04T02:34:58.904Z,0.00
2023-01-04T02:35:55.608Z,0.00
2023-01-04T02:36:55.616Z,0.00
2023-01-04T02:37:55.764Z,0.00
2023-01-04T02:38:55.560Z,0.00
2023-01-04T02:39:55.573Z,0.00
2023-01-04T02:40:55.513Z,0.00
2023-01-04T02:41:55.533Z,0.00
2023-01-04T02:42:55.493Z,0.00
2023-01-04T02:43:55.497Z,0.00
2023-01-04T02:44:55.486Z,0.00
2023-01-04T02:45:55.477Z,0.00
2023-01-04T02:46:55.512Z,0.00
2023-01-04T02:47:55.467Z,0.00
2023-01-04T02:48:55.434Z,0.00
2023-01-04T02:49:59.068Z,0.00
2023-01-04T02:50:56.420Z,0.00
2023-01-04T02:51:55.414Z,0.00
2023-01-04T02:52:55.405Z,0.00
2023-01-04T02:53:55.383Z,0.00
2023-01-04T02:54:55.370Z,0.00
2023-01-04T02:55:55.395Z,0.00
2023-01-04T02:56:59.523Z,0.00
2023-01-04T02:57:56.333Z,0.00
2023-01-04T02:58:55.349Z,0.00
2023-01-04T02:59:55.317Z,0.00
2023-01-04T03:00:55.301Z,0.00
2023-01-04T03:01:55.450Z,0.00
2023-01-04T03:02:55.513Z,0.00
2023-01-04T03:03:55.323Z,0.00
2023-01-04T03:04:55.329Z,0.00
2023-01-04T03:05:55.277Z,0.00
2023-01-04T03:06:55.247Z,0.00
2023-01-04T03:07:55.229Z,0.00
2023-01-04T03:08:55.253Z,0.00
2023-01-04T03:09:55.195Z,0.00
2023-01-04T03:10:55.229Z,0.00
2023-01-04T03:11:55.174Z,0.00
2023-01-04T03:12:55.173Z,0.00
2023-01-04T03:13:55.156Z,0.00
2023-01-04T03:14:55.134Z,0.00
2023-01-04T03:15:55.258Z,0.00
2023-01-04T03:16:55.128Z,0.00
2023-01-04T03:17:55.404Z,0.00
2023-01-04T03:18:55.104Z,0.00
2023-01-04T03:19:55.573Z,0.00
2023-01-04T03:20:55.086Z,0.00
2023-01-04T03:21:55.089Z,0.00
2023-01-04T03:22:55.582Z,0.00
2023-01-04T03:23:55.067Z,0.00
2023-01-04T03:24:55.028Z,0.00
2023-01-04T03:25:55.040Z,0.00
2023-01-04T03:26:55.019Z,0.00
2023-01-04T03:27:55.009Z,0.00
2023-01-04T03:28:54.996Z,0.00
2023-01-04T03:29:55.019Z,0.00
2023-01-04T03:30:55.004Z,0.00
2023-01-04T03:31:55.043Z,0.00
2023-01-04T03:32:54.970Z,0.00
2023-01-04T03:33:54.931Z,0.00
2023-01-04T03:34:54.952Z,0.00
2023-01-04T03:35:54.920Z,0.00
2023-01-04T03:36:54.901Z,0.00
2023-01-04T03:37:54.890Z,0.00
2023-01-04T03:38:54.874Z,0.00
2023-01-04T03:39:54.893Z,0.00
2023-01-04T03:40:54.848Z,0.00
2023-01-04T03:41:54.851Z,0.00
2023-01-04T03:42:54.875Z,0.00
2023-01-04T03:43:54.835Z,0.00
2023-01-04T03:44:54.847Z,0.00
2023-01-04T03:45:54.820Z,0.00
2023-01-04T03:46:54.892Z,0.00
2023-01-04T03:47:54.780Z,0.00
2023-01-04T03:48:54.755Z,0.00
2023-01-04T03:49:54.909Z,0.00
2023-01-04T03:50:54.755Z,0.00
2023-01-04T03:51:54.746Z,0.00
2023-01-04T03:52:54.716Z,0.00
2023-01-04T03:53:54.722Z,0.00
2023-01-04T03:54:54.702Z,0.00
2023-01-04T03:55:54.706Z,0.00
2023-01-04T03:56:54.681Z,0.00
2023-01-04T03:57:54.679Z,0.00
2023-01-04T03:58:54.663Z,0.00
2023-01-04T03:59:54.653Z,0.00
2023-01-04T04:00:54.736Z,0.00
2023-01-04T04:01:54.688Z,0.00
2023-01-04T04:02:55.361Z,0.00
2023-01-04T04:03:54.691Z,0.00
2023-01-04T04:04:54.580Z,0.00
2023-01-04T04:05:54.619Z,0.00
2023-01-04T04:06:54.560Z,0.00
2023-01-04T04:07:54.570Z,0.00
2023-01-04T04:08:54.535Z,0.00
2023-01-04T04:09:54.535Z,0.00
2023-01-04T04:10:54.542Z,0.00
2023-01-04T04:11:54.535Z,0.00
2023-01-04T04:12:54.503Z,0.00
2023-01-04T04:14:01.772Z,0.00
2023-01-04T04:14:54.474Z,0.00
2023-01-04T04:15:54.481Z,0.00
2023-01-04T04:16:54.526Z,0.00
2023-01-04T04:17:54.452Z,0.00
2023-01-04T04:18:54.437Z,0.00
2023-01-04T04:19:54.413Z,0.00
2023-01-04T04:20:54.429Z,0.00
2023-01-04T04:21:54.393Z,0.00
2023-01-04T04:22:54.380Z,0.00
2023-01-04T04:23:54.380Z,0.00
2023-01-04T04:24:54.361Z,0.00
2023-01-04T04:25:54.351Z,0.00
2023-01-04T04:26:54.392Z,0.00
2023-01-04T04:27:54.329Z,0.00
2023-01-04T04:28:54.339Z,0.00
2023-01-04T04:29:54.306Z,0.00
2023-01-04T04:30:54.309Z,0.00
2023-01-04T04:31:54.392Z,0.00
2023-01-04T04:32:54.300Z,0.00
2023-01-04T04:33:54.272Z,0.00
2023-01-04T04:34:54.258Z,0.00
2023-01-04T04:35:54.259Z,0.00
2023-01-04T04:36:54.273Z,0.00
2023-01-04T04:37:54.247Z,0.00
2023-01-04T04:38:54.219Z,0.00
2023-01-04T04:39:54.204Z,0.00
2023-01-04T04:40:54.185Z,0.00
2023-01-04T04:41:54.176Z,0.00
2023-01-04T04:42:54.176Z,0.00
2023-01-04T04:43:54.155Z,0.00
2023-01-04T04:44:54.141Z,0.00
2023-01-04T04:45:54.169Z,0.00
2023-01-04T04:46:54.132Z,0.00
2023-01-04T04:47:54.130Z,0.00
2023-01-04T04:48:54.104Z,0.00
2023-01-04T04:49:54.110Z,0.00
2023-01-04T04:50:54.121Z,0.00
2023-01-04T04:51:54.058Z,0.00
2023-01-04T04:52:56.265Z,0.00
2023-01-04T04:53:54.053Z,0.00
2023-01-04T04:54:54.035Z,0.00
2023-01-04T04:55:54.025Z,0.00
2023-01-04T04:56:54.025Z,0.00
2023-01-04T04:57:54.021Z,0.00
2023-01-04T04:58:54.001Z,0.00
2023-01-04T04:59:53.983Z,0.00
2023-01-04T05:00:54.038Z,0.00
2023-01-04T05:01:54.147Z,0.00
2023-01-04T05:02:54.092Z,0.00
2023-01-04T05:03:53.946Z,0.00
2023-01-04T05:04:53.933Z,0.00
2023-01-04T05:05:53.893Z,0.00
2023-01-04T05:06:53.901Z,0.00
2023-01-04T05:07:53.900Z,0.00
2023-01-04T05:08:53.885Z,0.00
2023-01-04T05:09:53.853Z,0.00
2023-01-04T05:10:53.863Z,0.00
2023-01-04T05:11:53.832Z,0.00
2023-01-04T05:12:57.824Z,0.00
2023-01-04T05:13:53.815Z,0.00
2023-01-04T05:14:53.820Z,0.00
2023-01-04T05:15:53.789Z,0.00
2023-01-04T05:16:53.933Z,0.00
2023-01-04T05:17:53.805Z,0.00
2023-01-04T05:18:53.770Z,0.00
2023-01-04T05:19:53.767Z,0.00
2023-01-04T05:20:53.751Z,0.00
2023-01-04T05:21:53.740Z,0.00
2023-01-04T05:22:53.745Z,0.00
2023-01-04T05:23:53.693Z,0.00
2023-01-04T05:24:53.701Z,0.00
2023-01-04T05:25:53.685Z,0.00
2023-01-04T05:26:53.690Z,0.00
2023-01-04T05:27:53.659Z,0.00
2023-01-04T05:28:54.432Z,0.00
2023-01-04T05:29:53.637Z,0.00
2023-01-04T05:30:53.849Z,0.00
2023-01-04T05:31:53.684Z,0.00
2023-01-04T05:32:53.613Z,0.00
2023-01-04T05:33:53.612Z,0.00
2023-01-04T05:34:53.588Z,0.00
2023-01-04T05:35:53.586Z,0.00
2023-01-04T05:36:53.565Z,0.00
2023-01-04T05:37:53.553Z,0.00
2023-01-04T05:38:53.590Z,0.00
2023-01-04T05:39:53.553Z,0.00
2023-01-04T05:40:53.513Z,0.00
2023-01-04T05:41:53.513Z,0.00
2023-01-04T05:42:53.494Z,0.00
2023-01-04T05:43:53.507Z,0.00
2023-01-04T05:44:53.476Z,0.00
2023-01-04T05:45:53.523Z,0.00
2023-01-04T05:46:53.454Z,0.00
2023-01-04T05:47:53.445Z,0.00
2023-01-04T05:48:53.430Z,0.00
2023-01-04T05:49:53.440Z,0.00
2023-01-04T05:50:53.437Z,0.00
2023-01-04T05:51:53.447Z,0.00
2023-01-04T05:52:53.438Z,0.00
2023-01-04T05:53:53.367Z,0.00
2023-01-04T05:54:53.356Z,0.00
2023-01-04T05:55:53.502Z,0.00
2023-01-04T05:56:53.342Z,0.00
2023-01-04T05:57:53.329Z,0.00
2023-01-04T05:58:53.333Z,0.00
2023-01-04T05:59:53.311Z,0.00
2023-01-04T06:00:53.306Z,0.00
2023-01-04T06:01:53.409Z,0.00
2023-01-04T06:02:53.434Z,0.00
2023-01-04T06:03:53.330Z,0.00
2023-01-04T06:04:58.857Z,0.00
2023-01-04T06:05:54.234Z,0.00
2023-01-04T06:06:53.239Z,0.00
2023-01-04T06:07:53.225Z,0.00
2023-01-04T06:08:53.203Z,0.00
2023-01-04T06:09:53.197Z,0.00
2023-01-04T06:10:53.187Z,0.00
2023-01-04T06:11:53.288Z,0.00
2023-01-04T06:12:53.153Z,0.00
2023-01-04T06:13:53.147Z,0.00
2023-01-04T06:14:53.158Z,0.00
2023-01-04T06:15:53.117Z,0.00
2023-01-04T06:16:53.169Z,0.00
2023-01-04T06:17:53.098Z,0.00
2023-01-04T06:18:53.098Z,0.00
2023-01-04T06:19:53.109Z,0.00
2023-01-04T06:20:53.066Z,0.00
2023-01-04T06:21:53.060Z,0.00
2023-01-04T06:22:53.071Z,0.00
2023-01-04T06:23:53.047Z,0.00
2023-01-04T06:24:53.109Z,0.00
2023-01-04T06:25:53.176Z,0.00
2023-01-04T06:26:53.156Z,0.00
2023-01-04T06:27:53.169Z,0.00
2023-01-04T06:28:53.156Z,0.00
2023-01-04T06:29:53.186Z,0.00
2023-01-04T06:30:53.058Z,0.00
2023-01-04T06:31:53.551Z,0.00
2023-01-04T06:32:52.935Z,0.00
2023-01-04T06:33:52.921Z,0.00
2023-01-04T06:34:52.917Z,0.00
2023-01-04T06:35:52.899Z,0.00
2023-01-04T06:36:52.899Z,0.00
2023-01-04T06:37:52.889Z,0.00
2023-01-04T06:38:52.872Z,0.00
2023-01-04T06:39:52.858Z,0.00
2023-01-04T06:40:52.847Z,0.00
2023-01-04T06:41:52.888Z,0.00
2023-01-04T06:42:52.827Z,0.00
2023-01-04T06:43:52.836Z,0.00
2023-01-04T06:44:52.816Z,0.00
2023-01-04T06:45:52.809Z,0.00
2023-01-04T06:46:52.775Z,0.00
2023-01-04T06:47:52.773Z,0.00
2023-01-04T06:48:52.774Z,0.00
2023-01-04T06:49:52.760Z,0.00
2023-01-04T06:50:52.736Z,0.00
2023-01-04T06:51:52.736Z,0.00
2023-01-04T06:52:52.729Z,0.00
2023-01-04T06:53:52.728Z,0.00
2023-01-04T06:54:52.719Z,0.00
2023-01-04T06:55:52.680Z,0.00
2023-01-04T06:56:52.670Z,0.00
2023-01-04T06:57:57.630Z,0.00
2023-01-04T06:58:53.953Z,0.00
2023-01-04T06:59:52.635Z,0.00
2023-01-04T07:00:52.626Z,0.00
2023-01-04T07:01:52.708Z,0.00
2023-01-04T07:03:13.935Z,0.00
2023-01-04T07:03:53.585Z,0.00
2023-01-04T07:04:52.695Z,0.00
2023-01-04T07:05:52.568Z,0.00
2023-01-04T07:06:52.569Z,0.00
2023-01-04T07:07:52.612Z,0.00
2023-01-04T07:08:52.646Z,0.00
2023-01-04T07:09:52.608Z,0.00
2023-01-04T07:10:52.613Z,0.00
2023-01-04T07:11:52.651Z,0.00
2023-01-04T07:12:52.629Z,0.00
2023-01-04T07:13:52.656Z,0.00
2023-01-04T07:14:52.691Z,0.00
2023-01-04T07:15:52.686Z,0.00
2023-01-04T07:16:52.685Z,4.00
2023-01-04T07:17:52.628Z,4.00
2023-01-04T07:18:52.629Z,4.00
2023-01-04T07:19:52.497Z,4.00
2023-01-04T07:20:52.701Z,4.00
2023-01-04T07:21:52.379Z,0.00
2023-01-04T07:22:52.389Z,4.00
2023-01-04T07:23:52.360Z,4.00
2023-01-04T07:24:52.371Z,4.00
2023-01-04T07:25:52.347Z,4.00
2023-01-04T07:26:52.368Z,4.00
2023-01-04T07:27:52.324Z,4.00
2023-01-04T07:28:52.327Z,4.00
2023-01-04T07:29:52.301Z,4.00
2023-01-04T07:30:52.368Z,4.00
2023-01-04T07:31:52.309Z,4.00
2023-01-04T07:32:52.285Z,4.00
2023-01-04T07:33:52.260Z,4.00
2023-01-04T07:34:52.246Z,8.00
2023-01-04T07:35:52.252Z,8.00
2023-01-04T07:36:52.240Z,8.00
2023-01-04T07:37:57.763Z,8.00
2023-01-04T07:38:53.202Z,4.00
2023-01-04T07:39:52.197Z,8.00
2023-01-04T07:40:55.778Z,4.00
2023-01-04T07:41:52.196Z,8.00
2023-01-04T07:42:52.157Z,8.00
2023-01-04T07:43:52.168Z,8.00
2023-01-04T07:44:52.148Z,4.00
2023-01-04T07:45:52.195Z,8.00
2023-01-04T07:46:52.196Z,8.00
2023-01-04T07:47:52.089Z,8.00
2023-01-04T07:48:52.092Z,8.00
2023-01-04T07:49:52.071Z,8.00
2023-01-04T07:50:52.075Z,8.00
2023-01-04T07:51:52.050Z,8.00
2023-01-04T07:52:52.091Z,8.00
2023-01-04T07:53:52.030Z,8.00
2023-01-04T07:54:52.045Z,12.00
2023-01-04T07:55:51.998Z,16.00
2023-01-04T07:56:52.001Z,12.00
2023-01-04T07:57:51.976Z,12.00
2023-01-04T07:58:52.001Z,16.00
2023-01-04T07:59:51.957Z,20.00
2023-01-04T08:00:51.981Z,20.00
2023-01-04T08:01:52.057Z,20.00
2023-01-04T08:02:52.177Z,20.00
2023-01-04T08:03:51.932Z,20.00
2023-01-04T08:04:52.034Z,20.00
2023-01-04T08:05:51.895Z,28.00
2023-01-04T08:06:51.887Z,28.00
2023-01-04T08:07:51.885Z,24.00
2023-01-04T08:08:51.879Z,32.00
2023-01-04T08:09:51.854Z,32.00
2023-01-04T08:10:51.901Z,32.00
2023-01-04T08:11:51.881Z,36.00
2023-01-04T08:12:51.902Z,36.00
2023-01-04T08:13:51.946Z,44.00
2023-01-04T08:14:51.962Z,52.00
2023-01-04T08:15:52.034Z,56.00
2023-01-04T08:16:52.053Z,52.00
2023-01-04T08:17:52.030Z,52.00
2023-01-04T08:18:51.976Z,60.00
2023-01-04T08:19:51.926Z,64.00
2023-01-04T08:20:56.659Z,64.00
2023-01-04T08:21:52.728Z,68.00
2023-01-04T08:22:51.733Z,68.00
2023-01-04T08:23:51.751Z,68.00
2023-01-04T08:24:51.681Z,68.00
2023-01-04T08:25:51.684Z,60.00
2023-01-04T08:26:51.670Z,64.00
2023-01-04T08:27:51.668Z,72.00
2023-01-04T08:28:51.645Z,72.00
2023-01-04T08:29:51.639Z,72.00
2023-01-04T08:30:51.715Z,56.00
2023-01-04T08:31:51.642Z,60.00
2023-01-04T08:32:51.629Z,56.00
2023-01-04T08:33:51.578Z,64.00
2023-01-04T08:34:51.592Z,52.00
2023-01-04T08:35:51.579Z,52.00
2023-01-04T08:36:51.542Z,52.00
2023-01-04T08:37:51.542Z,52.00
2023-01-04T08:39:00.936Z,48.00
2023-01-04T08:39:52.717Z,44.00
2023-01-04T08:40:59.820Z,44.00
2023-01-04T08:42:20.327Z,52.00
2023-01-04T08:42:52.790Z,56.00
2023-01-04T08:43:51.481Z,64.00
2023-01-04T08:44:57.078Z,76.00
2023-01-04T08:45:52.451Z,76.00
2023-01-04T08:46:51.611Z,80.00
2023-01-04T08:47:51.441Z,92.00
2023-01-04T08:48:51.430Z,96.00
2023-01-04T08:49:51.429Z,92.00
2023-01-04T08:50:51.389Z,104.00
2023-01-04T08:51:51.391Z,104.00
2023-01-04T08:52:51.358Z,132.00
2023-01-04T08:53:51.366Z,136.00
2023-01-04T08:54:51.368Z,136.00
2023-01-04T08:55:51.350Z,144.00
2023-01-04T08:56:51.318Z,132.00
2023-01-04T08:57:51.310Z,132.00
2023-01-04T08:58:51.321Z,128.00
2023-01-04T08:59:51.291Z,128.00
2023-01-04T09:00:51.469Z,120.00
2023-01-04T09:01:51.420Z,116.00
2023-01-04T09:02:51.455Z,128.00
2023-01-04T09:03:51.265Z,124.00
2023-01-04T09:04:51.475Z,120.00
2023-01-04T09:05:51.225Z,108.00
2023-01-04T09:06:51.230Z,104.00
2023-01-04T09:07:51.201Z,104.00
2023-01-04T09:08:51.181Z,112.00
2023-01-04T09:09:51.188Z,104.00
2023-01-04T09:10:51.186Z,108.00
2023-01-04T09:11:51.172Z,112.00
2023-01-04T09:12:51.135Z,108.00
2023-01-04T09:13:51.139Z,120.00
2023-01-04T09:14:51.135Z,104.00
2023-01-04T09:15:51.153Z,104.00
2023-01-04T09:16:51.135Z,92.00
2023-01-04T09:18:29.563Z,84.00
2023-01-04T09:18:52.092Z,80.00
2023-01-04T09:19:51.077Z,72.00
2023-01-04T09:20:51.081Z,76.00
2023-01-04T09:21:51.123Z,72.00
2023-01-04T09:22:51.042Z,84.00
2023-01-04T09:23:51.042Z,116.00
2023-01-04T09:24:51.020Z,148.00
2023-01-04T09:25:50.994Z,164.00
2023-01-04T09:26:50.980Z,212.00
2023-01-04T09:27:50.974Z,232.00
2023-01-04T09:28:50.982Z,296.00
2023-01-04T09:29:50.966Z,316.00
2023-01-04T09:30:50.933Z,308.00
2023-01-04T09:31:51.056Z,308.00
2023-01-04T09:32:50.910Z,252.00
2023-01-04T09:34:51.902Z,228.00
2023-01-04T09:35:50.887Z,252.00
2023-01-04T09:36:50.878Z,260.00
2023-01-04T09:37:50.861Z,236.00
2023-01-04T09:38:50.862Z,228.00
2023-01-04T09:39:50.862Z,216.00
2023-01-04T09:40:50.832Z,188.00
2023-01-04T09:41:50.815Z,212.00
2023-01-04T09:42:50.824Z,216.00
2023-01-04T09:43:51.850Z,236.00
2023-01-04T09:45:23.767Z,224.00
2023-01-04T09:45:51.815Z,192.00
2023-01-04T09:46:50.841Z,168.00
2023-01-04T09:47:50.766Z,128.00
2023-01-04T09:48:50.753Z,96.00
2023-01-04T09:49:50.736Z,76.00
2023-01-04T09:50:50.724Z,76.00
2023-01-04T09:51:50.713Z,92.00
2023-01-04T09:52:50.702Z,84.00
2023-01-04T09:53:50.727Z,76.00
2023-01-04T09:54:50.685Z,68.00
2023-01-04T09:55:50.669Z,72.00
2023-01-04T09:56:50.647Z,60.00
2023-01-04T09:57:50.645Z,48.00
2023-01-04T09:58:50.622Z,52.00
2023-01-04T09:59:50.632Z,60.00
2023-01-04T10:00:50.649Z,68.00
2023-01-04T10:01:50.942Z,76.00
2023-01-04T10:02:50.753Z,76.00
2023-01-04T10:03:50.680Z,76.00
2023-01-04T10:04:50.571Z,92.00
2023-01-04T10:05:50.572Z,84.00
2023-01-04T10:06:50.543Z,92.00
2023-01-04T10:07:50.541Z,84.00
2023-01-04T10:08:50.504Z,96.00
2023-01-04T10:09:50.524Z,96.00
2023-01-04T10:10:50.504Z,100.00
2023-01-04T10:11:50.484Z,132.00
2023-01-04T10:12:52.964Z,136.00
2023-01-04T10:13:50.463Z,148.00
2023-01-04T10:14:50.459Z,168.00
2023-01-04T10:15:50.509Z,160.00
2023-01-04T10:19:17.264Z,128.00
2023-01-04T10:19:23.553Z,120.00
2023-01-04T10:21:12.025Z,132.00
2023-01-04T10:21:51.538Z,144.00
2023-01-04T10:22:50.346Z,136.00
2023-01-04T10:23:50.347Z,144.00
2023-01-04T10:24:50.547Z,152.00
2023-01-04T10:25:50.349Z,156.00
2023-01-04T10:26:50.321Z,156.00
2023-01-04T10:27:50.348Z,152.00
2023-01-04T10:28:50.291Z,128.00
2023-01-04T10:29:50.291Z,124.00
2023-01-04T10:30:50.288Z,116.00
2023-01-04T10:31:50.319Z,124.00
2023-01-04T10:32:50.241Z,96.00
2023-01-04T10:33:50.247Z,92.00
2023-01-04T10:34:50.235Z,92.00
2023-01-04T10:35:50.223Z,104.00
2023-01-04T10:36:50.217Z,120.00
2023-01-04T10:37:50.184Z,168.00
2023-01-04T10:38:50.173Z,224.00
2023-01-04T10:39:50.197Z,208.00
2023-01-04T10:40:50.162Z,252.00
2023-01-04T10:41:50.157Z,248.00
2023-01-04T10:42:50.128Z,264.00
2023-01-04T10:44:12.022Z,312.00
2023-01-04T10:44:51.116Z,304.00
2023-01-04T10:45:50.105Z,340.00
2023-01-04T10:46:50.126Z,324.00
2023-01-04T10:47:50.077Z,304.00
2023-01-04T10:48:50.076Z,296.00
2023-01-04T10:49:50.085Z,300.00
2023-01-04T10:50:50.096Z,304.00
2023-01-04T10:51:50.060Z,288.00
2023-01-04T10:52:50.059Z,260.00
2023-01-04T10:53:50.032Z,240.00
2023-01-04T10:54:49.996Z,260.00
2023-01-04T10:56:24.321Z,276.00
2023-01-04T10:56:51.105Z,248.00
2023-01-04T10:57:50.255Z,300.00
2023-01-04T10:58:49.955Z,312.00
2023-01-04T10:59:49.958Z,308.00
2023-01-04T11:00:50.055Z,288.00
2023-01-04T11:01:50.234Z,300.00
2023-01-04T11:02:50.122Z,276.00
2023-01-04T11:03:49.977Z,300.00
2023-01-04T11:04:49.909Z,352.00
2023-01-04T11:05:49.917Z,412.00
2023-01-04T11:06:49.877Z,412.00
2023-01-04T11:07:49.869Z,432.00
2023-01-04T11:08:49.855Z,408.00
2023-01-04T11:09:49.850Z,324.00
2023-01-04T11:10:49.832Z,264.00
2023-01-04T11:11:49.833Z,288.00
2023-01-04T11:12:49.834Z,324.00
2023-01-04T11:13:49.790Z,324.00
2023-01-04T11:14:49.787Z,268.00
2023-01-04T11:15:49.817Z,248.00
2023-01-04T11:16:49.851Z,244.00
2023-01-04T11:17:49.755Z,224.00
2023-01-04T11:18:49.725Z,200.00
2023-01-04T11:19:49.737Z,256.00
2023-01-04T11:20:49.725Z,264.00
2023-01-04T11:21:49.752Z,240.00
2023-01-04T11:22:49.782Z,260.00
2023-01-04T11:23:49.681Z,292.00
2023-01-04T11:25:32.648Z,280.00
2023-01-04T11:25:55.780Z,260.00
2023-01-04T11:26:50.651Z,276.00
2023-01-04T11:27:49.654Z,284.00
2023-01-04T11:28:49.624Z,296.00
2023-01-04T11:29:50.469Z,296.00
2023-01-04T11:30:49.607Z,300.00
2023-01-04T11:31:49.757Z,316.00
2023-01-04T11:32:49.790Z,260.00
2023-01-04T11:33:49.598Z,264.00
2023-01-04T11:34:49.625Z,268.00
2023-01-04T11:35:49.566Z,272.00
2023-01-04T11:36:49.531Z,300.00
2023-01-04T11:37:49.537Z,296.00
2023-01-04T11:38:49.506Z,264.00
2023-01-04T11:39:49.580Z,292.00
2023-01-04T11:40:49.557Z,312.00
2023-01-04T11:41:49.479Z,284.00
2023-01-04T11:42:49.533Z,288.00
2023-01-04T11:43:49.461Z,356.00
2023-01-04T11:44:49.436Z,312.00
2023-01-04T11:45:49.537Z,412.00
2023-01-04T11:46:49.419Z,464.00
2023-01-04T11:47:49.417Z,500.00
2023-01-04T11:48:49.417Z,420.00
2023-01-04T11:49:49.414Z,332.00
2023-01-04T11:50:49.381Z,300.00
2023-01-04T11:51:49.370Z,268.00
2023-01-04T11:52:49.396Z,264.00
2023-01-04T11:53:49.367Z,256.00
2023-01-04T11:54:49.348Z,256.00
2023-01-04T11:55:49.345Z,268.00
2023-01-04T11:56:49.298Z,284.00
2023-01-04T11:57:49.290Z,264.00
2023-01-04T11:58:49.277Z,316.00
2023-01-04T11:59:49.328Z,320.00
2023-01-04T12:00:49.279Z,304.00
2023-01-04T12:01:49.306Z,260.00
2023-01-04T12:03:01.392Z,304.00
2023-01-04T12:03:50.255Z,260.00
2023-01-04T12:04:49.218Z,296.00
2023-01-04T12:05:49.236Z,296.00
2023-01-04T12:06:49.191Z,336.00
2023-01-04T12:07:49.210Z,312.00
2023-01-04T12:08:49.177Z,256.00
2023-01-04T12:09:49.378Z,256.00
2023-01-04T12:10:49.158Z,260.00
2023-01-04T12:11:49.158Z,256.00
2023-01-04T12:12:49.149Z,244.00
2023-01-04T12:13:49.139Z,204.00
2023-01-04T12:14:49.110Z,208.00
2023-01-04T12:15:49.110Z,200.00
2023-01-04T12:16:49.080Z,220.00
2023-01-04T12:17:49.088Z,196.00
2023-01-04T12:18:49.072Z,176.00
2023-01-04T12:19:49.108Z,196.00
2023-01-04T12:20:49.056Z,208.00
2023-01-04T12:21:49.051Z,208.00
2023-01-04T12:22:49.028Z,224.00
2023-01-04T12:23:49.017Z,200.00
2023-01-04T12:24:49.002Z,204.00
2023-01-04T12:25:49.041Z,188.00
2023-01-04T12:26:48.971Z,212.00
2023-01-04T12:27:48.950Z,228.00
2023-01-04T12:28:48.952Z,200.00
2023-01-04T12:29:48.966Z,212.00
2023-01-04T12:30:48.943Z,192.00
2023-01-04T12:31:48.935Z,192.00
2023-01-04T12:32:48.921Z,184.00
2023-01-04T12:33:48.911Z,180.00
2023-01-04T12:34:48.879Z,184.00
2023-01-04T12:35:48.884Z,192.00
2023-01-04T12:36:48.855Z,208.00
2023-01-04T12:37:48.852Z,176.00
2023-01-04T12:38:49.379Z,164.00
2023-01-04T12:39:48.913Z,172.00
2023-01-04T12:40:48.825Z,160.00
2023-01-04T12:41:48.872Z,172.00
2023-01-04T12:42:48.803Z,180.00
2023-01-04T12:43:48.832Z,192.00
2023-01-04T12:44:48.775Z,180.00
2023-01-04T12:45:48.822Z,200.00
2023-01-04T12:46:48.754Z,200.00
2023-01-04T12:47:48.751Z,216.00
2023-01-04T12:48:48.747Z,220.00
2023-01-04T12:49:48.773Z,232.00
2023-01-04T12:50:59.255Z,232.00
2023-01-04T12:52:12.873Z,208.00
2023-01-04T12:53:49.823Z,176.00
2023-01-04T12:54:48.663Z,200.00
2023-01-04T12:55:48.700Z,188.00
2023-01-04T12:56:48.667Z,184.00
2023-01-04T12:57:48.652Z,212.00
2023-01-04T12:59:24.269Z,200.00
2023-01-04T12:59:49.630Z,220.00
2023-01-04T13:00:48.642Z,200.00
2023-01-04T13:01:48.761Z,192.00
2023-01-04T13:02:48.943Z,192.00
2023-01-04T13:03:48.917Z,180.00
2023-01-04T13:04:48.570Z,164.00